METAR Reports From Nearby Airports

 

KLUD - Decatur, Texas, USA
Distance from Wildwood: ESE 5mi, 8km
Updated: Mar 06, 2021 5:55pm
Clear
Clear
 Wind from E
Wind: E 8 mph , 13 km/h
Temperature: 61°F , 16°C
Dew Point: 32°F , 0°C
Humidity: 34%
Barometer: 30.26 inHg , 1024.7 hPa
Clouds: Clear
Visibility: 10 miles , 16 km
2021/03/06 23:55 KLUD 062355Z AUTO 10007KT 10SM CLR 16/00 A3026 RMK AO2 T01590000 10179 20143
KXBP - Bridgeport, Texas, USA
Distance from Wildwood: WSW 11mi, 18km
Updated: Mar 06, 2021 5:55pm
Clear
Clear
 Wind from ESE
Wind: ESE 6 mph , 9 km/h
Temperature: 61°F , 16°C
Dew Point: 32°F , 0°C
Humidity: 34%
Barometer: 30.27 inHg , 1025.1 hPa
Clouds: Clear
Visibility: 10 miles , 16 km
2021/03/06 23:55 KXBP 062355Z AUTO 11005KT 10SM CLR 16/00 A3027 RMK AO2 T01610000 10178 20144
 
K0F2 - Bowie, Texas, USA
Distance from Wildwood: NNW 24mi, 39km
Updated: Mar 06, 2021 6:15pm
Clear
Clear
 Wind from ESE
Wind: ESE 6 mph , 9 km/h
Temperature: 59°F , 15°C
Dew Point: 32°F , 0°C
Humidity: 36%
Barometer: 30.26 inHg , 1024.7 hPa
Clouds: Clear
Visibility: 10 miles , 16 km
2021/03/07 00:15 K0F2 070015Z AUTO 11005KT 10SM CLR 15/00 A3026 RMK AO2 T01530004
KDTO - Denton, Texas, USA
Distance from Wildwood: E 27mi, 44km
Updated: Mar 06, 2021 5:53pm
Clear
Clear
 Wind from E
Wind: E 7 mph , 11 km/h
Temperature: 63°F , 17°C
Dew Point: 30°F , -1°C
Humidity: 30%
Barometer: 30.26 inHg , 1024.7 hPa
Clouds: Clear
Visibility: 10 miles , 16 km
2021/03/06 23:53 KDTO 062353Z 10006KT 10SM CLR 17/M01 A3026 RMK AO2 SLP245 T01721011 10183 20150 55009
 
KAFW - Ft Worth/Allianc, Texas, USA
Distance from Wildwood: SE 29mi, 46km
Updated: Mar 06, 2021 5:53pm
Few Clouds
Few Clouds
 Wind from E
Wind: E 8 mph , 13 km/h
Temperature: 63°F , 17°C
Dew Point: 28°F , -2°C
Humidity: 27%
Barometer: 30.25 inHg , 1024.4 hPa
Clouds: Few Clouds
Visibility: 10 miles , 16 km
Cloud details: Few Clouds 30000 ft
2021/03/06 23:53 KAFW 062353Z 09007KT 10SM FEW300 17/M02 A3025 RMK AO2 SLP243 T01721022 10183 20150 55010 $
KFTW - Fort Worth, Texas, USA
Distance from Wildwood: SSE 34mi, 55km
Updated: Mar 06, 2021 5:53pm
Clear
Clear
 Wind from ESE
Wind: ESE 12 mph , 19 km/h
Temperature: 61°F , 16°C
Dew Point: 30°F , -1°C
Humidity: 31%
Barometer: 30.24 inHg , 1024 hPa
Clouds: Clear
Visibility: 10 miles , 16 km
2021/03/06 23:53 KFTW 062353Z 11010KT 10SM CLR 16/M01 A3024 RMK AO2 SLP240 T01561006 10178 20139 55011
 
KNFW - Fort Worth Nas, Texas, USA
Distance from Wildwood: SSE 36mi, 58km
Updated: Mar 06, 2021 5:52pm
Clear
Clear
 Wind from E
Wind: E 12 mph , 19 km/h
Temperature: 63°F , 17°C
Dew Point: 28°F , -2°C
Humidity: 27%
Barometer: 30.25 inHg , 1024.4 hPa
Clouds: Clear
Visibility: 10 miles , 16 km
2021/03/06 23:52 KNFW 062352Z AUTO 10010KT 10SM CLR 17/M02 A3025 RMK AO2 SLP226 T01721017 10194 20156 55010 TSNO $
KGLE - Gainesville, Texas, USA
Distance from Wildwood: NE 38mi, 61km
Updated: Mar 06, 2021 5:55pm
Clear
Clear
 Wind from ESE
Wind: ESE 8 mph , 13 km/h
Temperature: 59°F , 15°C
Dew Point: 32°F , 0°C
Humidity: 36%
Barometer: 30.28 inHg , 1025.4 hPa
Clouds: Clear
Visibility: 10 miles , 16 km
2021/03/06 23:55 KGLE 062355Z AUTO 12007KT 10SM CLR 15/00 A3028 RMK AO2 T01520004 10180 20146 PWINO
 
KMWL - Mineral Wells, Texas, USA
Distance from Wildwood: SW 41mi, 65km
Updated: Mar 06, 2021 5:53pm
Clear
Clear
 Wind from SE
Wind: SE 8 mph , 13 km/h
Temperature: 63°F , 17°C
Dew Point: 34°F , 1°C
Humidity: 34%
Barometer: 30.23 inHg , 1023.7 hPa
Clouds: Clear
Visibility: 10 miles , 16 km
2021/03/06 23:53 KMWL 062353Z AUTO 14007KT 10SM CLR 17/01 A3023 RMK AO2 SLP235 T01670011 10183 20150 55009
KDFW - Dallas/Ft Worth, Texas, USA
Distance from Wildwood: ESE 45mi, 73km
Updated: Mar 06, 2021 5:53pm
Few Clouds
Few Clouds
 Wind from ESE
Wind: ESE 9 mph , 15 km/h
Temperature: 61°F , 16°C
Dew Point: 25°F , -4°C
Humidity: 25%
Barometer: 30.24 inHg , 1024 hPa
Clouds: Few Clouds
Visibility: 10 miles , 16 km
Cloud details: Few Clouds 30000 ft
2021/03/06 23:53 KDFW 062353Z 11008KT 10SM FEW300 16/M04 A3024 RMK AO2 SLP239 T01611039 10183 20150 55009